Latest Coastal Weather Observations for Yamba

IDN60701

Issued at 8:22 am EST Monday 25 July 2016 (issued every 10 minutes, with the page automatically refreshed every 10 minutes)

About coastal observations | Map of coastal stations | Coastal observations for NSW | Marine services | Other Formats
Station Details ID: 058012 Name: YAMBA PILOT STATION Lat: -29.43 Lon: 153.36 Height: 27.4 m
Data from the previous 72 hours. | See also: Recent months at Yamba
Date/Time
EST
Temp
°C
Wind Pressure Rain since
9am
mm
Weather Cloud Vis
km
Sea
Height
m
Swell
Dir  Spd
kts
Gust
kts
hPa Trend Height
m
Period
s
Dir
25/08:00am 12.0 WNW 5 6 1017.5 - 0.0 - - - - - - -
25/07:30am 10.8 WNW 4 5 1017.2 - 0.0 - - - - - - -
25/07:00am 10.2 W 4 6 1017.0 - 0.0 - - - - - - -
25/06:30am 10.3 W 4 6 1016.7 - 0.0 - - - - - - -
25/06:00am 11.2 SW 3 4 1016.4 - 0.0 - - - - - - -
25/05:30am 11.5 SSW 4 6 1016.3 - 0.0 - - - - - - -
25/05:00am 11.7 SSW 4 6 1016.3 - 0.0 - - - - - - -
25/04:30am 12.6 SSW 6 9 1016.0 - 0.0 - - - - - - -
25/04:00am 13.0 SW 8 14 1015.7 - 0.0 - - - - - - -
25/03:30am 13.4 SW 9 16 1015.1 - 0.0 - - - - - - -
25/03:00am 13.5 SW 6 11 1015.5 - 0.0 - - - - - - -
25/02:30am 13.6 WSW 7 11 1015.3 - 0.0 - - - - - - -
25/02:00am 13.4 SW 9 18 1015.1 - 0.0 - - - - - - -
25/01:30am 13.2 SW 8 15 1015.2 - 0.0 - - - - - - -
25/01:00am 12.8 WSW 7 11 1015.3 - 0.0 - - - - - - -
25/12:30am 12.6 WSW 4 9 1015.5 - 0.0 - - - - - - -
25/12:00am 13.0 WSW 4 8 1015.6 - 0.0 - - - - - - -
 
Date/Time
EST
Temp
°C
Wind Pressure Rain since
9am
mm
Weather Cloud Vis
km
Sea
Height
m
Swell
Dir  Spd
kts
Gust
kts
hPa Trend Height
m
Period
s
Dir
24/11:30pm 13.1 SW 3 5 1015.5 - 0.0 - - - - - - -
24/11:00pm 13.5 SW 4 6 1015.4 - 0.0 - - - - - - -
24/10:30pm 13.7 SW 4 6 1015.1 - 0.0 - - - - - - -
24/10:00pm 14.4 SW 5 7 1014.8 - 0.0 - - - - - - -
24/09:30pm 14.5 WSW 4 5 1014.7 - 0.0 - - - - - - -
24/09:00pm 14.7 WSW 4 6 1014.6 - 0.0 - - - - - - -
24/08:30pm 15.1 SW 4 6 1014.3 - 0.0 - - - - - - -
24/08:00pm 15.5 SW 4 5 1014.3 - 0.0 - - - - - - -
24/07:30pm 15.7 NNE 1 5 1014.2 - 0.0 - - - - - - -
24/07:00pm 16.1 CALM 0 0 1014.0 - 0.0 - - - - - - -
24/06:30pm 16.3 NE 1 4 1014.1 - 0.0 - - - - - - -
24/06:00pm 16.1 E 3 5 1013.9 - 0.0 - - - - - - -
24/05:30pm 16.1 E 4 5 1013.6 - 0.0 - - - - - - -
24/05:00pm 16.2 ESE 4 5 1013.6 - 0.0 - - - - - - -
24/04:30pm 16.5 ESE 4 6 1013.2 - 0.0 - - - - - - -
24/04:00pm 16.7 E 4 6 1013.2 - 0.0 - - - - - - -
24/03:30pm 16.7 ENE 4 7 1012.6 - 0.0 - - - - - - -
24/03:00pm 17.3 NE 3 6 1012.6 - 0.0 - - - - - - -
24/02:30pm 17.3 ENE 4 6 1013.0 - 0.0 - - - - - - -
24/02:00pm 17.6 ESE 4 5 1013.7 - 0.0 - - - - - - -
24/01:30pm 17.5 ESE 5 7 1014.1 - 0.0 - - - - - - -
24/01:00pm 17.9 SE 5 7 1014.8 - 0.0 - - - - - - -
24/12:30pm 17.4 SSW 3 6 1015.0 - 0.0 - - - - - - -
24/12:00pm 17.5 S 5 8 1015.7 - 0.0 - - - - - - -
24/11:30am 17.6 SW 4 7 1016.1 - 0.0 - - - - - - -
24/11:00am 16.6 SW 4 7 1016.5 - 0.0 - - - - - - -
24/10:30am 15.9 WSW 5 9 1016.8 - 0.0 - - - - - - -
24/10:00am 15.5 WSW 5 9 1017.2 - 0.0 - - - - - - -
24/09:30am 15.0 WSW 6 11 1016.7 - 0.0 - - - - - - -
24/09:00am 14.2 WSW 5 9 1017.0 - 0.0 - - - - - - -
24/08:30am 13.2 SW 5 9 1016.9 - 0.0 - - - - - - -
24/08:00am 12.7 SW 5 8 1016.1 - 0.0 - - - - - - -
24/07:30am 13.0 SW 4 7 1016.8 - 0.0 - - - - - - -
24/07:00am 12.6 WSW 5 7 1016.4 - 0.0 - - - - - - -
24/06:30am 12.5 WSW 5 7 1015.9 - 0.0 - - - - - - -
24/06:00am 12.7 WSW 4 7 1015.4 - 0.0 - - - - - - -
24/05:30am 12.8 WSW 5 8 1015.0 - 0.0 - - - - - - -
24/05:00am 13.2 WSW 5 7 1014.0 - 0.0 - - - - - - -
24/04:30am 13.4 WSW 5 8 1013.8 - 0.0 - - - - - - -
24/04:00am 13.7 WSW 5 8 1014.0 - 0.0 - - - - - - -
24/03:30am 13.9 WSW 5 8 1014.0 - 0.0 - - - - - - -
24/03:00am 14.0 WSW 4 7 1014.0 - 0.0 - - - - - - -
24/02:30am 14.1 W 6 10 1013.6 - 0.0 - - - - - - -
24/02:00am 14.2 WSW 5 10 1013.3 - 0.0 - - - - - - -
24/01:30am 14.4 W 6 9 1013.1 - 0.0 - - - - - - -
24/01:00am 14.8 W 5 7 1013.7 - 0.0 - - - - - - -
24/12:30am 15.4 W 6 11 1013.5 - 0.0 - - - - - - -
24/12:00am 15.2 W 6 10 1013.3 - 0.0 - - - - - - -
 
Date/Time
EST
Temp
°C
Wind Pressure Rain since
9am
mm
Weather Cloud Vis
km
Sea
Height
m
Swell
Dir  Spd
kts
Gust
kts
hPa Trend Height
m
Period
s
Dir
23/11:30pm 15.6 W 9 13 1012.8 - 0.0 - - - - - - -
23/11:00pm 15.7 WSW 7 12 1012.8 - 0.0 - - - - - - -
23/10:30pm 15.6 WSW 5 8 1012.7 - 0.0 - - - - - - -
23/10:00pm 15.8 WSW 5 10 1012.5 - 0.0 - - - - - - -
23/09:30pm 16.8 WSW 7 11 1012.2 - 0.0 - - - - - - -
23/09:00pm 17.3 W 9 16 1011.8 - 0.0 - - - - - - -
23/08:30pm 17.4 WNW 10 17 1011.0 - 0.0 - - - - - - -
23/08:00pm 17.9 W 11 18 1010.5 - 0.0 - - - - - - -
23/07:30pm 18.2 WNW 7 11 1010.3 - 0.0 - - - - - - -
23/07:00pm 18.7 WNW 8 12 1009.6 - 0.0 - - - - - - -
23/06:30pm 19.9 WNW 11 15 1008.5 - 0.0 - - - - - - -
23/06:00pm 20.5 WNW 11 14 1008.3 - 0.0 - - - - - - -
23/05:30pm 20.7 WNW 8 12 1008.0 - 0.0 - - - - - - -
23/05:00pm 21.9 NW 10 15 1007.0 - 0.0 - - - - - - -
23/04:30pm 22.9 NW 9 15 1006.6 - 0.0 - - - - - - -
23/04:00pm 24.6 NW 10 17 1006.0 - 0.0 - - - - - - -
23/03:30pm 25.3 NW 13 20 1005.4 - 0.0 - - - - - - -
23/03:00pm 26.0 WNW 16 24 1004.9 - 0.0 - - - - - - -
23/02:30pm 26.3 WNW 15 21 1004.7 - 0.0 - - - - - - -
23/02:00pm 26.5 NW 15 22 1004.5 - 0.0 - - - - - - -
23/01:46pm 26.9 WNW 16 26 1004.5 - 0.0 - - - - - - -
23/01:30pm 26.4 NW 15 23 1004.1 - 0.0 - - - - - - -
23/01:00pm 26.7 WNW 16 25 1004.3 - 0.0 - - - - - - -
23/12:30pm 27.0 WNW 15 25 1004.6 - 0.0 - - - - - - -
23/12:27pm 27.2 WNW 15 25 1004.6 - 0.0 - - - - - - -
23/12:00pm 27.1 NW 13 23 1004.9 - 0.0 - - - - - - -
23/11:30am 26.7 NW 15 22 1005.2 - 0.0 - - - - - - -
23/11:00am 26.8 NW 15 21 1005.2 - 0.0 - - - - - - -
23/10:30am 26.2 NW 14 22 1005.4 - 0.0 - - - - - - -
23/10:00am 25.6 NW 11 17 1005.4 - 0.0 - - - - - - -
23/09:30am 24.5 NW 12 19 1005.6 - 0.0 - - - - - - -
23/09:00am 21.6 NNW 7 10 1005.6 - 0.0 - - - - - - -
23/08:30am 21.3 NNW 7 11 1005.4 - 0.0 - - - - - - -
23/08:00am 21.5 NNW 8 13 1005.3 - 0.0 - - - - - - -
23/07:30am 21.0 NNW 7 11 1005.5 - 0.0 - - - - - - -
23/07:00am 20.2 NNW 8 12 1005.3 - 0.0 - - - - - - -
23/06:30am 20.1 NNW 10 15 1004.8 - 0.0 - - - - - - -
23/06:00am 20.3 NNW 8 13 1004.8 - 0.0 - - - - - - -
23/05:30am 20.5 NNW 10 15 1004.9 - 0.0 - - - - - - -
23/05:00am 20.8 NNW 9 15 1004.8 - 0.0 - - - - - - -
23/04:30am 20.6 NNW 11 15 1004.7 - 0.0 - - - - - - -
23/04:00am 20.6 NNW 9 14 1004.7 - 0.0 - - - - - - -
23/03:30am 20.0 NNW 9 12 1004.6 - 0.0 - - - - - - -
23/03:00am 20.2 NNW 10 17 1005.1 - 0.0 - - - - - - -
23/02:30am 20.2 NNW 9 14 1005.7 - 0.0 - - - - - - -
23/02:00am 20.2 NW 9 14 1006.1 - 0.0 - - - - - - -
23/01:30am 19.3 NW 8 10 1006.4 - 0.0 - - - - - - -
23/01:00am 19.5 NW 7 11 1007.0 - 0.0 - - - - - - -
23/12:30am 19.6 NNW 9 14 1007.0 - 0.0 - - - - - - -
23/12:00am 19.5 NNW 7 11 1007.5 - 0.0 - - - - - - -
 
Date/Time
EST
Temp
°C
Wind Pressure Rain since
9am
mm
Weather Cloud Vis
km
Sea
Height
m
Swell
Dir  Spd
kts
Gust
kts
hPa Trend Height
m
Period
s
Dir
22/11:30pm 19.2 NNW 8 11 1008.0 - 0.0 - - - - - - -
22/11:00pm 19.2 NW 6 8 1008.5 - 0.0 - - - - - - -
22/10:30pm 19.8 NNW 6 10 1008.8 - 0.0 - - - - - - -
22/10:00pm 20.0 NNW 8 12 1009.1 - 0.0 - - - - - - -
22/09:30pm 19.5 NNW 6 9 1009.3 - 0.0 - - - - - - -
22/09:00pm 19.3 NW 4 5 1009.5 - 0.0 - - - - - - -
22/08:30pm 19.8 NNW 5 7 1009.3 - 0.0 - - - - - - -
22/08:00pm 20.1 NNW 5 8 1009.5 - 0.0 - - - - - - -
22/07:30pm 20.2 N 7 11 1009.4 - 0.0 - - - - - - -
22/07:00pm 20.1 N 6 9 1009.2 - 0.0 - - - - - - -
22/06:30pm 19.9 N 5 8 1009.3 - 0.0 - - - - - - -
22/06:00pm 20.1 N 5 10 1009.5 - 0.0 - - - - - - -
22/05:30pm 20.4 N 6 10 1009.5 - 0.0 - - - - - - -
22/05:00pm 20.7 N 5 10 1009.1 - 0.0 - - - - - - -
22/04:30pm 21.5 N 5 9 1009.1 - 0.0 - - - - - - -
22/04:00pm 23.2 N 4 8 1009.1 - 0.0 - - - - - - -
22/03:30pm 24.8 NW 6 10 1009.2 - 0.0 - - - - - - -
22/03:00pm 25.5 NNW 6 9 1009.3 - 0.0 - - - - - - -
22/02:30pm 24.7 NNW 4 6 1009.6 - 0.0 - - - - - - -
22/02:00pm 24.5 N 4 6 1010.0 - 0.0 - - - - - - -
22/01:30pm 25.1 NNW 4 6 1010.4 - 0.0 - - - - - - -
22/01:00pm 24.5 NNE 3 5 1010.9 - 0.0 - - - - - - -
22/12:30pm 25.6 NNW 4 7 1011.5 - 0.0 - - - - - - -
22/12:00pm 24.9 NW 5 6 1012.4 - 0.0 - - - - - - -
22/11:30am 23.8 NW 4 7 1013.2 - 0.0 - - - - - - -
22/11:00am 21.9 W 4 5 1013.8 - 0.0 - - - - - - -
22/10:30am 20.7 N 3 5 1014.1 - 0.0 - - - - - - -
22/10:00am 19.5 NW 4 6 1014.6 - 0.0 - - - - - - -
22/09:30am 17.8 NW 5 6 1015.1 - 0.0 - - - - - - -
22/09:00am 17.4 NW 4 6 1015.3 - 0.2 - - - - - - -
22/08:30am 17.2 WNW 3 5 1015.1 - 0.2 - - - - - - -

Other Formats:

Comma delimited format used in spreadsheet applications
http://www.bom.gov.au/fwo/IDN60701/IDN60701.94589.axf

JavaScript Object Notation format (JSON) in row-major order
http://www.bom.gov.au/fwo/IDN60701/IDN60701.94589.json